Time,TemperatureF,DewpointF,PressureIn,WindDirection,WindDirectionDegrees,WindSpeedMPH,WindSpeedGustMPH,Humidity,HourlyPrecipIn,Conditions,Clouds,dailyrainin,SoftwareType,DateUTC
2013-08-22 00:27:00,54.3,51.7,29.83,SW,225,0.0,3.0,91,0.00,,---,0.00,VWS V14.01,2013-08-22 08:27:00,
2013-08-22 00:57:00,54.1,51.5,29.82,SW,227,0.0,2.0,91,0.00,,---,0.00,VWS V14.01,2013-08-22 08:57:00,
2013-08-22 01:27:00,54.1,51.8,29.82,East,99,2.0,4.0,92,0.00,,---,0.00,VWS V14.01,2013-08-22 09:27:00,
2013-08-22 01:57:00,53.8,51.5,29.82,SSW,194,1.0,6.0,92,0.00,,---,0.00,VWS V14.01,2013-08-22 09:57:00,
2013-08-22 02:27:00,53.6,51.3,29.83,SSW,200,1.0,4.0,92,0.00,,---,0.00,VWS V14.01,2013-08-22 10:27:00,
2013-08-22 04:27:00,52.4,51.0,29.81,SSW,205,1.0,6.0,95,0.00,,---,0.00,VWS V14.01,2013-08-22 12:27:00,
2013-08-22 04:57:00,52.5,51.1,29.81,SW,225,0.0,3.0,95,0.00,,---,0.00,VWS V14.01,2013-08-22 12:57:00,
2013-08-22 05:27:00,52.7,51.3,29.81,SSE,165,1.0,3.0,95,0.00,,---,0.00,VWS V14.01,2013-08-22 13:27:00,
2013-08-22 05:57:00,52.4,51.0,29.81,SSW,210,1.0,6.0,95,0.00,,---,0.00,VWS V14.01,2013-08-22 13:57:00,
2013-08-22 06:27:00,52.3,51.2,29.81,WSW,252,3.0,9.0,96,0.00,,---,0.00,VWS V14.01,2013-08-22 14:27:00,
2013-08-22 06:57:00,52.5,51.4,29.82,South,179,0.0,6.0,96,0.00,,---,0.00,VWS V14.01,2013-08-22 14:57:00,
2013-08-22 07:27:00,52.5,51.1,29.82,SW,217,1.0,7.0,95,0.00,,---,0.00,VWS V14.01,2013-08-22 15:27:00,
2013-08-22 07:57:00,52.8,51.4,29.82,SSW,201,1.0,8.0,95,0.00,,---,0.00,VWS V14.01,2013-08-22 15:57:00,
2013-08-22 08:27:00,53.1,51.7,29.82,WSW,246,2.0,9.0,95,0.00,,---,0.00,VWS V14.01,2013-08-22 16:27:00,
2013-08-22 08:57:00,53.3,51.6,29.82,SE,134,1.0,8.0,94,0.00,,---,0.00,VWS V14.01,2013-08-22 16:57:00,
2013-08-22 09:27:00,53.0,51.3,29.83,SW,236,2.0,8.0,94,0.00,,---,0.00,VWS V14.01,2013-08-22 17:27:00,
2013-08-22 09:57:00,53.7,52.0,29.83,SW,232,3.0,9.0,94,0.00,,---,0.00,VWS V14.01,2013-08-22 17:57:00,
2013-08-22 10:27:00,54.5,52.5,29.83,SSW,194,4.0,7.0,93,0.00,,---,0.00,VWS V14.01,2013-08-22 18:27:00,
2013-08-22 10:57:00,57.8,54.0,29.83,WNW,293,0.0,11.0,87,0.00,,---,0.00,VWS V14.01,2013-08-22 18:57:00,
2013-08-22 11:27:00,56.7,53.5,29.84,SSE,150,7.0,11.0,89,0.00,,---,0.00,VWS V14.01,2013-08-22 19:27:00,
2013-08-22 11:57:00,56.0,52.8,29.84,SSE,152,0.0,11.0,89,0.00,,---,0.00,VWS V14.01,2013-08-22 19:57:00,
2013-08-22 12:27:00,56.4,53.2,29.84,WSW,245,2.0,8.0,89,0.00,,---,0.00,VWS V14.01,2013-08-22 20:27:00,
2013-08-22 12:57:00,56.6,53.1,29.84,WNW,287,0.0,9.0,88,0.00,,---,0.00,VWS V14.01,2013-08-22 20:57:00,
2013-08-22 13:27:00,56.0,53.1,29.83,WSW,248,6.0,14.0,90,0.00,,---,0.00,VWS V14.01,2013-08-22 21:27:00,
2013-08-22 13:57:00,55.8,52.9,29.84,South,176,5.0,13.0,90,0.00,,---,0.00,VWS V14.01,2013-08-22 21:57:00,
2013-08-22 14:27:00,55.9,53.0,29.84,East,88,3.0,15.0,90,0.00,,---,0.00,VWS V14.01,2013-08-22 22:27:00,
2013-08-22 14:57:00,55.9,52.7,29.83,SW,235,3.0,13.0,89,0.00,,---,0.00,VWS V14.01,2013-08-22 22:57:00,
2013-08-22 15:27:00,56.7,51.6,29.84,SW,235,2.0,13.0,83,0.00,,---,0.00,VWS V14.01,2013-08-22 23:27:00,
2013-08-22 15:57:00,56.3,52.2,29.83,West,260,3.0,14.0,86,0.00,,---,0.00,VWS V14.01,2013-08-22 23:57:00,
2013-08-22 16:27:00,55.9,52.1,29.83,SSW,199,4.0,11.0,87,0.00,,---,0.00,VWS V14.01,2013-08-23 00:27:00,
2013-08-22 16:57:00,56.0,52.5,29.83,WSW,255,1.0,7.0,88,0.00,,---,0.00,VWS V14.01,2013-08-23 00:57:00,
2013-08-22 17:27:00,55.4,51.9,29.83,SSW,210,3.0,11.0,88,0.00,,---,0.00,VWS V14.01,2013-08-23 01:27:00,
2013-08-22 17:57:00,55.8,51.7,29.83,SSW,207,1.0,7.0,86,0.00,,---,0.00,VWS V14.01,2013-08-23 01:57:00,
2013-08-22 18:27:00,55.7,51.9,29.82,SSW,195,5.0,11.0,87,0.00,,---,0.00,VWS V14.01,2013-08-23 02:27:00,
2013-08-22 18:57:00,55.4,51.9,29.82,SSE,156,5.0,9.0,88,0.00,,---,0.00,VWS V14.01,2013-08-23 02:57:00,
2013-08-22 19:27:00,54.7,51.8,29.82,WSW,253,0.0,10.0,90,0.00,,---,0.00,VWS V14.01,2013-08-23 03:27:00,
2013-08-22 19:57:00,55.0,52.1,29.82,WSW,252,7.0,7.0,90,0.00,,---,0.00,VWS V14.01,2013-08-23 03:57:00,
2013-08-22 20:27:00,54.8,52.2,29.82,SSW,203,2.0,8.0,91,0.00,,---,0.00,VWS V14.01,2013-08-23 04:27:00,
2013-08-22 20:57:00,54.0,51.7,29.82,WSW,243,2.0,8.0,92,0.00,,---,0.00,VWS V14.01,2013-08-23 04:57:00,
2013-08-22 21:27:00,53.9,51.9,29.82,SSE,150,2.0,7.0,93,0.00,,---,0.00,VWS V14.01,2013-08-23 05:27:00,
2013-08-22 21:57:00,54.0,51.4,29.82,SSW,197,1.0,9.0,91,0.00,,---,0.00,VWS V14.01,2013-08-23 05:57:00,
2013-08-22 22:27:00,53.8,51.5,29.81,SSE,153,2.0,7.0,92,0.00,,---,0.00,VWS V14.01,2013-08-23 06:27:00,
2013-08-22 22:57:00,53.6,51.3,29.81,SSW,212,2.0,6.0,92,0.00,,---,0.00,VWS V14.01,2013-08-23 06:57:00,
2013-08-22 23:27:00,53.6,51.3,29.81,SW,234,4.0,5.0,92,0.00,,---,0.00,VWS V14.01,2013-08-23 07:27:00,
2013-08-22 23:57:00,53.9,51.3,29.81,SSW,197,0.0,4.0,91,0.00,,---,0.00,VWS V14.01,2013-08-23 07:57:00,